Terminal Aerodrome Forecast
Issued by NWS

Home | Current Version | Previous Version | Text Only | Print | Product List | Glossary On
Versions: 1 2 3 4 5 6 7 8 9 10 11 12 13 14 15 16 17 18
000
FTUS41 KGYX 221819 AAA
TAFRKD
TAF AMD
KRKD 221819Z 2218/2318 10008KT P6SM SCT025
     FM222200 VRB03KT P6SM SCT030 BKN100
      TEMPO 2309/2312 6SM BR
      AMD LTD TO CLD VIS AND WIND=

USA.gov is the U.S. government's official web portal to all federal, state and local government web resources and services.